Oden, Arkansas
Current Conditions -  °F | °C
As of 7:08 PM on Monday 22 Dec 2014 (Local Time) from KMWT Reporting Station
Haze Haze  
Wind Chill: 54°   Ceiling: 2200
Heat Index: 54°   Visibility: 6mi
Dew Point: 52°   Wind: 0mph
Humidity: 93%   Direction: NA
Pressure: 29.6"   Gusts: NA
Location:  34.62°N, 93.79°W
Report Text: KMWT 230108Z AUTO 00000KT 6SM BR BKN022 BKN031 OVC047 12/11 A2960 RMK AO2 T01220111
Loading
Personal Weather Stations






























Interactive Weather Map New forecast layout! Learn more

10-Day Weather Forecast

Advertisements
Track Severe Weather on mobile